Time;durP1;ratioP1;P1;durP2;ratioP2;P2;SDS_P1;SDS_P2;PMS_P1;PMS_P2;Temp;Humidity;BMP_temperature;BMP_pressure;BME280_temperature;BME280_humidity;BME280_pressure;Samples;Min_cycle;Max_cycle;Signal;HPM_P1;HPM_P2
2023/11/25 00:01:03;;;;;;;2.80;1.90;;;2.00;99.90;;;;;;5028832;28;20223;-87
2023/11/25 00:03:31;;;;;;;3.97;1.80;;;2.00;99.90;;;;;;5022121;28;20217;-87
2023/11/25 00:05:58;;;;;;;3.27;1.60;;;2.10;99.90;;;;;;5028334;28;20206;-88
2023/11/25 00:08:27;;;;;;;4.10;1.80;;;2.00;99.90;;;;;;5021188;28;20209;-88
2023/11/25 00:10:56;;;;;;;6.37;1.67;;;2.00;99.90;;;;;;5023358;28;20234;-88
2023/11/25 00:13:23;;;;;;;3.67;1.63;;;2.10;99.90;;;;;;5021853;28;20253;-88
2023/11/25 00:15:50;;;;;;;4.90;2.00;;;2.10;99.90;;;;;;5016896;28;20612;-87
2023/11/25 00:18:18;;;;;;;2.70;1.77;;;2.20;99.80;;;;;;5021880;28;20199;-88
2023/11/25 00:20:46;;;;;;;3.53;1.50;;;2.20;99.70;;;;;;5025008;28;20364;-88
2023/11/25 00:23:13;;;;;;;2.03;1.70;;;2.30;99.70;;;;;;5021210;28;20974;-88
2023/11/25 00:25:40;;;;;;;5.53;1.80;;;2.20;99.60;;;;;;5028024;28;20670;-88
2023/11/25 00:28:09;;;;;;;4.20;1.77;;;2.20;99.60;;;;;;5025371;28;20286;-88
2023/11/25 00:30:36;;;;;;;3.63;1.60;;;2.30;99.70;;;;;;5022997;28;20199;-88
2023/11/25 00:33:04;;;;;;;3.93;1.73;;;2.30;99.70;;;;;;5022266;28;20197;-88
2023/11/25 00:35:31;;;;;;;3.93;1.53;;;2.30;99.20;;;;;;5020371;28;20254;-88
2023/11/25 00:37:59;;;;;;;2.77;1.50;;;2.30;99.20;;;;;;5035660;28;20195;-88
2023/11/25 00:40:27;;;;;;;3.57;1.60;;;2.40;99.20;;;;;;5023751;28;20206;-88
2023/11/25 00:42:54;;;;;;;3.70;1.43;;;2.40;98.90;;;;;;5023420;28;20240;-87
2023/11/25 00:45:25;;;;;;;3.57;1.33;;;2.30;98.80;;;;;;4998975;28;20195;-88
2023/11/25 00:47:51;;;;;;;3.87;1.47;;;2.20;98.50;;;;;;5029220;28;20205;-88
2023/11/25 00:50:19;;;;;;;2.73;1.40;;;2.20;98.70;;;;;;5023421;28;20198;-88
2023/11/25 00:52:46;;;;;;;5.33;1.77;;;2.20;98.20;;;;;;5015630;28;20231;-88
2023/11/25 00:55:14;;;;;;;3.60;1.50;;;2.30;98.40;;;;;;5019385;28;20364;-87
2023/11/25 00:57:41;;;;;;;3.03;1.50;;;2.20;98.20;;;;;;5022700;28;20253;-87
2023/11/25 01:00:15;;;;;;;3.27;1.50;;;2.20;97.80;;;;;;5021469;28;20759;-88
2023/11/25 01:02:42;;;;;;;1.57;1.17;;;2.20;97.70;;;;;;5017699;28;20237;-88
2023/11/25 01:05:09;;;;;;;2.87;1.20;;;2.30;97.80;;;;;;5022649;28;20214;-88
2023/11/25 01:07:37;;;;;;;2.43;1.33;;;2.20;97.60;;;;;;5028706;28;20226;-88
2023/11/25 01:10:05;;;;;;;1.97;1.40;;;2.20;98.50;;;;;;5022034;28;20620;-88
2023/11/25 01:12:35;;;;;;;2.63;1.47;;;2.20;99.90;;;;;;5018695;28;20284;-88
2023/11/25 01:15:03;;;;;;;5.53;1.40;;;2.10;99.90;;;;;;5023601;28;20199;-87
2023/11/25 01:17:30;;;;;;;4.43;1.80;;;2.00;99.90;;;;;;5025276;28;20234;-87
2023/11/25 01:19:58;;;;;;;4.27;1.27;;;1.90;99.90;;;;;;5029377;28;20198;-87
2023/11/25 01:22:25;;;;;;;4.00;1.30;;;1.80;99.90;;;;;;5026212;28;20230;-87
2023/11/25 01:24:51;;;;;;;3.00;1.40;;;1.80;99.90;;;;;;5016356;28;20284;-87
2023/11/25 01:27:18;;;;;;;2.53;1.50;;;1.80;99.90;;;;;;5025465;28;20209;-86
2023/11/25 01:29:46;;;;;;;6.90;1.30;;;1.80;99.90;;;;;;5020135;28;20207;-87
2023/11/25 01:32:13;;;;;;;2.50;1.90;;;1.80;99.90;;;;;;5022152;28;20250;-87
2023/11/25 01:34:40;;;;;;;3.07;1.47;;;1.90;99.90;;;;;;5016915;28;20199;-87
2023/11/25 01:37:08;;;;;;;4.20;1.47;;;1.90;99.90;;;;;;5028980;28;20198;-86
2023/11/25 01:39:35;;;;;;;1.40;1.13;;;2.00;99.90;;;;;;5019239;28;20561;-87
2023/11/25 01:42:02;;;;;;;2.70;1.33;;;1.90;99.90;;;;;;5015804;28;20585;-86
2023/11/25 01:44:29;;;;;;;2.97;1.27;;;1.70;99.90;;;;;;5018528;28;20660;-86
2023/11/25 01:46:58;;;;;;;0.80;0.80;;;1.60;99.90;;;;;;5025191;28;20209;-87
2023/11/25 01:49:25;;;;;;;1.07;1.07;;;1.50;99.90;;;;;;5017884;28;20194;-87
2023/11/25 01:51:52;;;;;;;1.40;0.70;;;1.40;99.90;;;;;;5023314;28;20233;-86
2023/11/25 01:54:21;;;;;;;1.00;0.83;;;1.40;99.90;;;;;;5022812;28;20667;-87
2023/11/25 01:56:51;;;;;;;0.63;0.63;;;1.40;99.90;;;;;;5025350;28;20198;-86
2023/11/25 01:59:19;;;;;;;1.00;0.73;;;1.30;99.90;;;;;;5019495;28;20203;-87
2023/11/25 02:01:46;;;;;;;0.73;0.70;;;1.40;99.90;;;;;;5019021;28;20229;-86
2023/11/25 02:04:14;;;;;;;1.70;1.10;;;1.40;99.90;;;;;;5016611;28;20204;-86
2023/11/25 02:06:41;;;;;;;0.70;0.70;;;1.40;99.90;;;;;;5022667;28;20214;-86
2023/11/25 02:09:08;;;;;;;1.03;0.93;;;1.30;99.90;;;;;;5019257;28;20198;-86
2023/11/25 02:11:56;;;;;;;1.07;0.90;;;1.40;99.90;;;;;;5016558;28;20254;-86
2023/11/25 02:14:24;;;;;;;2.00;1.07;;;1.30;99.90;;;;;;5017384;28;20266;-86
2023/11/25 02:16:53;;;;;;;1.37;1.00;;;1.40;99.90;;;;;;5019837;28;20199;-86
2023/11/25 02:19:24;;;;;;;1.20;1.10;;;1.40;99.90;;;;;;5022700;28;20198;-86
2023/11/25 02:21:51;;;;;;;1.47;0.90;;;1.40;99.90;;;;;;5025120;28;20214;-86
2023/11/25 02:24:21;;;;;;;1.73;0.97;;;1.50;99.90;;;;;;5019865;28;20192;-85
2023/11/25 02:26:48;;;;;;;3.17;1.20;;;1.60;99.50;;;;;;5020361;28;20290;-86
2023/11/25 02:29:15;;;;;;;1.00;1.00;;;1.70;97.70;;;;;;5026239;28;20207;-86
2023/11/25 02:31:42;;;;;;;2.30;1.20;;;1.60;97.50;;;;;;5029178;28;20191;-85
2023/11/25 02:34:09;;;;;;;1.27;1.17;;;1.60;97.40;;;;;;5025616;28;20279;-86
2023/11/25 02:36:38;;;;;;;1.10;1.00;;;1.50;97.70;;;;;;5031931;28;20199;-85
2023/11/25 02:39:04;;;;;;;2.00;1.10;;;1.50;97.00;;;;;;5032725;28;20218;-86
2023/11/25 02:41:33;;;;;;;1.57;1.00;;;1.40;96.90;;;;;;5028735;28;20222;-86
2023/11/25 02:43:59;;;;;;;2.80;1.03;;;1.50;96.90;;;;;;5025615;28;20200;-87
2023/11/25 02:46:27;;;;;;;0.90;0.90;;;1.60;96.90;;;;;;5024404;28;20289;-86
2023/11/25 02:48:54;;;;;;;1.77;1.00;;;1.60;97.00;;;;;;5023610;28;20201;-86
2023/11/25 02:51:21;;;;;;;0.83;0.83;;;1.50;96.20;;;;;;5024567;28;20232;-86
2023/11/25 02:53:50;;;;;;;2.40;1.00;;;1.40;96.20;;;;;;5030200;28;20245;-86
2023/11/25 02:56:17;;;;;;;1.03;0.90;;;1.40;96.10;;;;;;5026185;28;20231;-87
2023/11/25 02:58:46;;;;;;;1.00;0.87;;;1.30;95.20;;;;;;5024324;28;20293;-86
2023/11/25 03:01:13;;;;;;;2.23;0.80;;;1.20;94.90;;;;;;5031226;28;20199;-86
2023/11/25 03:03:47;;;;;;;2.00;0.90;;;1.10;95.70;;;;;;5023955;28;21289;-87
2023/11/25 03:06:14;;;;;;;1.60;1.00;;;1.10;96.10;;;;;;5029571;28;20290;-87
2023/11/25 03:08:41;;;;;;;2.50;1.03;;;1.10;96.40;;;;;;5025708;28;20216;-87
2023/11/25 03:11:12;;;;;;;0.80;0.80;;;1.00;96.50;;;;;;5026933;28;20643;-87
2023/11/25 03:13:39;;;;;;;1.87;1.17;;;1.00;96.40;;;;;;5017933;28;20209;-87
2023/11/25 03:16:10;;;;;;;1.93;1.07;;;1.10;96.50;;;;;;5023443;28;20203;-87
2023/11/25 03:18:37;;;;;;;1.43;0.90;;;1.00;95.90;;;;;;5024651;28;20726;-88
2023/11/25 03:21:04;;;;;;;3.70;1.10;;;1.10;96.10;;;;;;5021585;28;20691;-87
2023/11/25 03:23:31;;;;;;;1.70;0.93;;;1.10;96.00;;;;;;5020234;28;20229;-87
2023/11/25 03:25:57;;;;;;;1.80;0.90;;;1.10;95.80;;;;;;5032246;28;20201;-87
2023/11/25 03:28:25;;;;;;;2.90;1.00;;;1.10;95.60;;;;;;5032126;28;20203;-88
2023/11/25 03:30:52;;;;;;;1.73;1.07;;;1.20;95.10;;;;;;5020622;28;20298;-87
2023/11/25 03:33:20;;;;;;;2.03;1.20;;;1.10;95.20;;;;;;5023986;28;20199;-87
2023/11/25 03:35:47;;;;;;;2.90;0.90;;;1.10;94.90;;;;;;5027401;28;20567;-87
2023/11/25 03:38:14;;;;;;;2.83;1.00;;;1.10;94.80;;;;;;5016347;28;20620;-87
2023/11/25 03:40:40;;;;;;;2.13;0.80;;;1.10;95.10;;;;;;5025330;28;20195;-87
2023/11/25 03:43:08;;;;;;;3.97;1.03;;;1.20;95.10;;;;;;5025730;28;20298;-87
2023/11/25 03:45:35;;;;;;;1.17;0.70;;;1.20;94.90;;;;;;5027698;28;20198;-87
2023/11/25 03:48:02;;;;;;;1.07;0.97;;;1.20;95.00;;;;;;5027479;28;20226;-87
2023/11/25 03:50:31;;;;;;;1.70;1.00;;;1.30;94.30;;;;;;5028978;28;20221;-87
2023/11/25 03:53:01;;;;;;;2.73;1.00;;;1.20;94.80;;;;;;5022232;28;20583;-87
2023/11/25 03:55:28;;;;;;;3.70;1.07;;;1.20;95.20;;;;;;5025754;28;20564;-87
2023/11/25 03:57:55;;;;;;;2.50;1.07;;;1.20;95.30;;;;;;5021613;28;20207;-87
2023/11/25 04:00:22;;;;;;;2.30;0.97;;;1.20;95.20;;;;;;5019204;28;20222;-87
2023/11/25 04:02:51;;;;;;;1.43;0.90;;;1.20;95.10;;;;;;5020693;28;20223;-88
2023/11/25 04:05:18;;;;;;;2.17;1.10;;;1.10;95.50;;;;;;5021920;28;20483;-87
2023/11/25 04:07:47;;;;;;;2.30;0.87;;;1.10;95.60;;;;;;5028490;28;20198;-86
2023/11/25 04:10:15;;;;;;;2.43;1.00;;;1.10;95.20;;;;;;5024123;28;20214;-87
2023/11/25 04:12:42;;;;;;;2.07;1.40;;;1.10;95.10;;;;;;5025556;28;20289;-87
2023/11/25 04:15:11;;;;;;;2.03;1.03;;;1.20;95.20;;;;;;5020928;28;20485;-88
2023/11/25 04:17:38;;;;;;;2.77;1.03;;;1.20;95.30;;;;;;5026285;28;20631;-87
2023/11/25 04:20:12;;;;;;;2.10;1.00;;;1.20;94.70;;;;;;5015974;28;20293;-87
2023/11/25 04:22:41;;;;;;;2.33;1.10;;;1.30;94.90;;;;;;5028042;28;20218;-88
2023/11/25 04:25:10;;;;;;;2.00;1.00;;;1.30;95.00;;;;;;5025500;28;20199;-87
2023/11/25 04:27:38;;;;;;;2.27;1.30;;;1.30;94.40;;;;;;5024068;28;20199;-87
2023/11/25 04:30:07;;;;;;;3.13;1.20;;;1.30;94.30;;;;;;5021655;28;20195;-88
2023/11/25 04:32:33;;;;;;;1.70;1.10;;;1.30;94.30;;;;;;5020783;28;20575;-88
2023/11/25 04:35:00;;;;;;;1.60;1.10;;;1.20;94.30;;;;;;5029444;28;20209;-88
2023/11/25 04:37:27;;;;;;;2.23;1.10;;;1.20;94.30;;;;;;5021605;28;20199;-88
2023/11/25 04:39:54;;;;;;;1.97;1.00;;;1.20;95.40;;;;;;5023956;28;20200;-88
2023/11/25 04:42:23;;;;;;;3.17;1.00;;;1.20;94.70;;;;;;5020253;28;20227;-88
2023/11/25 04:44:50;;;;;;;2.97;1.20;;;1.20;95.00;;;;;;5021660;28;20297;-88
2023/11/25 04:47:17;;;;;;;1.90;1.20;;;1.30;94.70;;;;;;5020385;28;20496;-88
2023/11/25 04:49:45;;;;;;;2.77;1.20;;;1.30;94.30;;;;;;5019268;28;20203;-87
2023/11/25 04:52:13;;;;;;;3.97;1.20;;;1.20;94.30;;;;;;5028242;28;20313;-87
2023/11/25 04:54:41;;;;;;;2.27;0.93;;;1.10;94.70;;;;;;5024579;28;20607;-88
2023/11/25 04:57:08;;;;;;;2.47;1.10;;;1.10;95.20;;;;;;5018501;28;20199;-87
2023/11/25 04:59:37;;;;;;;2.10;1.20;;;1.10;95.50;;;;;;5021800;28;20202;-88
2023/11/25 05:02:05;;;;;;;2.80;1.00;;;1.20;94.70;;;;;;5020359;28;20203;-88
2023/11/25 05:04:32;;;;;;;1.83;1.10;;;1.20;95.10;;;;;;5022167;28;20205;-88
2023/11/25 05:06:59;;;;;;;3.47;1.03;;;1.20;94.90;;;;;;5020238;28;20208;-87
2023/11/25 05:09:27;;;;;;;2.63;1.17;;;1.30;95.10;;;;;;5018710;28;20202;-88
2023/11/25 05:11:53;;;;;;;2.47;1.00;;;1.20;94.90;;;;;;5023720;28;20199;-88
2023/11/25 05:14:20;;;;;;;2.60;1.23;;;1.20;95.20;;;;;;5022536;28;20302;-88
2023/11/25 05:16:49;;;;;;;1.83;0.90;;;1.20;95.10;;;;;;5018280;28;20217;-87
2023/11/25 05:19:16;;;;;;;3.10;1.20;;;1.20;94.90;;;;;;5019307;28;20564;-88
2023/11/25 05:21:43;;;;;;;3.10;1.40;;;1.20;94.60;;;;;;5017607;28;20190;-88
2023/11/25 05:24:11;;;;;;;4.03;1.20;;;1.30;94.40;;;;;;5023891;28;20226;-88
2023/11/25 05:26:38;;;;;;;3.93;1.20;;;1.30;95.00;;;;;;5028845;28;20613;-88
2023/11/25 05:29:05;;;;;;;3.07;1.13;;;1.30;94.90;;;;;;5028666;28;20202;-88
2023/11/25 05:31:33;;;;;;;3.00;0.93;;;1.30;95.00;;;;;;5024777;28;20215;-88
2023/11/25 05:34:04;;;;;;;1.87;1.03;;;1.20;94.80;;;;;;5023291;28;20199;-88
2023/11/25 05:36:32;;;;;;;2.40;1.30;;;1.20;94.70;;;;;;5018642;28;20659;-88
2023/11/25 05:38:59;;;;;;;3.73;1.40;;;1.30;94.30;;;;;;5021032;28;20205;-88
2023/11/25 05:41:27;;;;;;;1.63;1.00;;;1.20;94.30;;;;;;5029523;28;20198;-88
2023/11/25 05:43:54;;;;;;;2.47;1.20;;;1.20;94.30;;;;;;5021589;28;20762;-87
2023/11/25 05:46:22;;;;;;;2.57;1.13;;;1.30;94.30;;;;;;5026791;28;20218;-87
2023/11/25 05:48:50;;;;;;;5.43;1.10;;;1.30;94.30;;;;;;5026565;28;20218;-88
2023/11/25 05:51:18;;;;;;;1.57;1.00;;;1.30;94.30;;;;;;5041444;28;20213;-88
2023/11/25 05:53:45;;;;;;;2.80;1.20;;;1.30;94.30;;;;;;5046846;28;20188;-87
2023/11/25 05:56:12;;;;;;;1.23;1.00;;;1.20;94.30;;;;;;5044794;28;20194;-88
2023/11/25 05:58:39;;;;;;;1.90;1.17;;;1.10;94.30;;;;;;5021941;28;20207;-88
2023/11/25 06:01:06;;;;;;;2.73;1.13;;;1.10;94.60;;;;;;5021101;28;20195;-88
2023/11/25 06:03:33;;;;;;;2.80;1.30;;;1.10;94.30;;;;;;5021886;28;20222;-88
2023/11/25 06:06:00;;;;;;;3.23;1.20;;;1.00;94.70;;;;;;5026448;28;20194;-88
2023/11/25 06:08:29;;;;;;;5.80;1.10;;;0.80;94.90;;;;;;5021986;28;20233;-88
2023/11/25 06:10:57;;;;;;;2.07;1.10;;;0.80;95.20;;;;;;5018365;28;20199;-88
2023/11/25 06:13:24;;;;;;;1.93;1.00;;;0.80;95.50;;;;;;5024581;28;20643;-88
2023/11/25 06:15:52;;;;;;;2.93;1.07;;;0.70;95.40;;;;;;5016469;28;20201;-88
2023/11/25 06:18:20;;;;;;;4.00;1.27;;;0.70;95.50;;;;;;5023735;28;20195;-88
2023/11/25 06:20:47;;;;;;;1.40;1.20;;;0.60;95.90;;;;;;5021468;28;21242;-88
2023/11/25 06:23:14;;;;;;;2.63;1.60;;;0.60;95.80;;;;;;5022541;28;20218;-88
2023/11/25 06:25:44;;;;;;;2.43;1.30;;;0.50;95.70;;;;;;5016545;28;20199;-88
2023/11/25 06:28:14;;;;;;;3.17;1.33;;;0.50;96.00;;;;;;5020494;28;20206;-91
2023/11/25 06:30:41;;;;;;;2.63;1.40;;;0.50;95.70;;;;;;5024440;28;20205;-88
2023/11/25 06:33:08;;;;;;;4.07;1.57;;;0.40;95.50;;;;;;5017084;28;20195;-88
2023/11/25 06:35:36;;;;;;;3.60;1.20;;;0.40;95.80;;;;;;5016283;28;20207;-88
2023/11/25 06:38:04;;;;;;;3.83;1.40;;;0.50;95.80;;;;;;5017064;28;20203;-88
2023/11/25 06:40:33;;;;;;;3.30;1.30;;;0.50;95.00;;;;;;5020560;28;20207;-88
2023/11/25 06:43:01;;;;;;;2.87;1.40;;;0.40;94.70;;;;;;5024416;28;20279;-88
2023/11/25 06:45:28;;;;;;;3.77;1.43;;;0.60;94.60;;;;;;5023381;28;20199;-88
2023/11/25 06:47:55;;;;;;;2.40;1.10;;;0.50;94.10;;;;;;5020091;28;20567;-88
2023/11/25 06:50:22;;;;;;;1.83;1.20;;;0.50;94.10;;;;;;5020879;28;20227;-88
2023/11/25 06:52:50;;;;;;;4.03;1.10;;;0.70;94.20;;;;;;5021699;28;20322;-88
2023/11/25 06:55:18;;;;;;;4.70;1.57;;;0.50;94.10;;;;;;5029599;28;20199;-88
2023/11/25 06:57:45;;;;;;;2.70;1.80;;;0.60;94.10;;;;;;5021575;28;20282;-89
2023/11/25 07:00:15;;;;;;;4.03;1.50;;;0.60;94.10;;;;;;5014290;28;20688;-88
2023/11/25 07:02:42;;;;;;;4.43;1.43;;;0.70;94.20;;;;;;5019245;28;20277;-88
2023/11/25 07:05:09;;;;;;;4.17;1.00;;;0.70;94.80;;;;;;5018088;28;20203;-88
2023/11/25 07:07:36;;;;;;;4.03;1.50;;;0.70;94.20;;;;;;5018491;28;20210;-88
2023/11/25 07:10:04;;;;;;;4.53;1.63;;;0.80;94.20;;;;;;5021856;28;20203;-88
2023/11/25 07:12:31;;;;;;;4.27;1.50;;;0.70;94.60;;;;;;5023523;28;20218;-88
2023/11/25 07:14:58;;;;;;;2.30;1.20;;;0.80;94.30;;;;;;5025247;28;20205;-88
2023/11/25 07:17:26;;;;;;;2.60;1.27;;;0.90;94.20;;;;;;5026395;28;20213;-88
2023/11/25 07:19:53;;;;;;;1.50;1.00;;;0.90;94.20;;;;;;5028485;28;20237;-88
2023/11/25 07:22:20;;;;;;;3.77;1.40;;;0.80;94.20;;;;;;5023782;28;20199;-88
2023/11/25 07:24:47;;;;;;;2.10;1.30;;;0.80;94.20;;;;;;5022593;28;20793;-88
2023/11/25 07:27:18;;;;;;;3.40;1.47;;;0.80;94.20;;;;;;5031326;28;20205;-88
2023/11/25 07:29:45;;;;;;;2.10;1.30;;;0.90;94.20;;;;;;5029745;28;20237;-89
2023/11/25 07:32:12;;;;;;;4.20;1.20;;;1.00;93.80;;;;;;5022984;28;20293;-89
2023/11/25 07:34:40;;;;;;;3.10;1.53;;;0.90;94.20;;;;;;5021263;28;20672;-90
2023/11/25 07:37:08;;;;;;;4.63;1.50;;;0.80;94.20;;;;;;5025747;28;20575;-88
2023/11/25 07:39:35;;;;;;;1.23;1.03;;;0.70;94.20;;;;;;5022035;28;20208;-87
2023/11/25 07:42:04;;;;;;;3.90;1.83;;;0.70;94.20;;;;;;5024428;28;20199;-88
2023/11/25 07:44:31;;;;;;;3.30;1.57;;;0.70;94.20;;;;;;5022307;28;20226;-87
2023/11/25 07:46:58;;;;;;;3.30;1.30;;;0.70;94.20;;;;;;5017880;28;20761;-88
2023/11/25 07:49:25;;;;;;;3.20;1.37;;;0.80;94.20;;;;;;5022756;28;20201;-88
2023/11/25 07:51:53;;;;;;;2.60;1.20;;;0.90;94.20;;;;;;5022340;28;20226;-88
2023/11/25 07:54:20;;;;;;;2.80;1.50;;;0.90;94.20;;;;;;5023158;28;20239;-88
2023/11/25 07:56:47;;;;;;;4.00;1.50;;;0.80;94.20;;;;;;5021962;28;20206;-88
2023/11/25 07:59:14;;;;;;;4.60;1.50;;;0.90;94.20;;;;;;5019426;28;20207;-87
2023/11/25 08:01:41;;;;;;;5.60;1.63;;;0.90;93.40;;;;;;5023409;28;20199;-86
2023/11/25 08:04:08;;;;;;;4.17;1.60;;;0.90;93.70;;;;;;5027528;28;20687;-88
2023/11/25 08:06:35;;;;;;;3.03;1.20;;;1.00;93.00;;;;;;5018985;28;20205;-87
2023/11/25 08:09:04;;;;;;;3.60;1.33;;;1.00;93.50;;;;;;5016027;28;20271;-89
2023/11/25 08:11:32;;;;;;;2.53;1.20;;;1.10;93.20;;;;;;5022143;28;20265;-87
2023/11/25 08:13:59;;;;;;;2.60;1.30;;;1.20;92.70;;;;;;5024248;28;20198;-89
2023/11/25 08:16:26;;;;;;;4.87;1.63;;;1.30;92.40;;;;;;5022397;28;20213;-87
2023/11/25 08:18:52;;;;;;;2.43;1.27;;;1.20;92.20;;;;;;5023278;28;21067;-85
2023/11/25 08:21:19;;;;;;;3.60;1.40;;;1.40;92.40;;;;;;5019137;28;20379;-87
2023/11/25 08:23:47;;;;;;;4.90;1.70;;;1.60;92.10;;;;;;5025907;28;20711;-87
2023/11/25 08:26:20;;;;;;;4.67;1.40;;;1.70;92.30;;;;;;5022480;28;20199;-86
2023/11/25 08:28:47;;;;;;;3.97;1.50;;;1.70;91.70;;;;;;5020905;28;20203;-86
2023/11/25 08:31:14;;;;;;;4.23;1.60;;;1.80;91.70;;;;;;5023953;28;20213;-87
2023/11/25 08:33:41;;;;;;;2.60;1.30;;;1.80;91.70;;;;;;5015097;28;20211;-86
2023/11/25 08:36:09;;;;;;;3.37;1.80;;;1.80;91.70;;;;;;5020855;28;20252;-85
2023/11/25 08:38:36;;;;;;;2.77;1.20;;;1.80;92.00;;;;;;5019493;28;20194;-86
2023/11/25 08:41:06;;;;;;;3.33;1.50;;;1.90;91.30;;;;;;5023382;28;20199;-88
2023/11/25 08:43:34;;;;;;;3.70;1.50;;;1.90;91.70;;;;;;5020051;28;20322;-90
2023/11/25 08:46:04;;;;;;;4.33;1.47;;;2.00;91.00;;;;;;5028909;28;20283;-91
2023/11/25 08:48:31;;;;;;;4.53;1.43;;;1.90;91.40;;;;;;5039649;28;20202;-93
2023/11/25 08:50:58;;;;;;;3.83;1.70;;;1.90;90.90;;;;;;5185768;23;20220;-91
2023/11/25 08:53:25;;;;;;;6.67;1.73;;;1.90;90.90;;;;;;5751834;23;20233;-93
2023/11/25 08:55:52;;;;;;;33.63;16.90;;;1.90;91.20;;;;;;5178177;23;20228;-91
2023/11/25 08:58:19;;;;;;;3.87;2.20;;;1.90;90.70;;;;;;5037500;28;20198;-92
2023/11/25 09:00:51;;;;;;;19.47;11.40;;;1.90;90.40;;;;;;5467045;23;20231;-92
2023/11/25 09:03:18;;;;;;;27.90;17.40;;;2.00;90.80;;;;;;5025044;28;20218;-94
2023/11/25 09:05:47;;;;;;;3.37;1.50;;;2.10;90.80;;;;;;5120579;23;20314;-93
2023/11/25 09:08:14;;;;;;;7.17;1.40;;;2.10;90.10;;;;;;5122965;23;20230;-89
2023/11/25 09:10:41;;;;;;;3.33;1.43;;;2.20;88.70;;;;;;5050132;28;20203;-91
2023/11/25 09:13:08;;;;;;;2.80;1.47;;;2.20;89.00;;;;;;5051974;28;20209;-90
2023/11/25 09:15:35;;;;;;;3.17;1.30;;;2.30;87.80;;;;;;5054243;28;20255;-91
2023/11/25 09:18:06;;;;;;;6.77;1.60;;;2.10;89.60;;;;;;5036290;28;20199;-86
2023/11/25 09:20:33;;;;;;;2.77;1.60;;;2.10;88.80;;;;;;5028397;28;20625;-87
2023/11/25 09:23:00;;;;;;;8.73;1.77;;;2.00;90.20;;;;;;5028008;28;20198;-86
2023/11/25 09:25:29;;;;;;;3.47;1.60;;;2.10;90.40;;;;;;5028119;28;20230;-88
2023/11/25 09:27:55;;;;;;;4.80;1.60;;;2.00;90.40;;;;;;5025933;28;20198;-88
2023/11/25 09:30:23;;;;;;;10.20;2.03;;;2.00;90.00;;;;;;5027774;28;20202;-88
2023/11/25 09:32:50;;;;;;;6.20;1.43;;;2.10;90.50;;;;;;5022833;28;20207;-89
2023/11/25 09:35:18;;;;;;;3.77;1.60;;;2.10;90.50;;;;;;5022501;28;20203;-88
2023/11/25 09:37:45;;;;;;;5.10;1.57;;;2.10;90.60;;;;;;5096021;23;20688;-86
2023/11/25 09:40:15;;;;;;;6.57;2.07;;;2.10;90.30;;;;;;4994751;28;20290;-87
2023/11/25 09:42:43;;;;;;;4.93;1.73;;;2.20;90.40;;;;;;4998900;28;20211;-90
2023/11/25 09:45:12;;;;;;;5.33;1.40;;;2.20;90.50;;;;;;4991882;28;20208;-91
2023/11/25 09:47:39;;;;;;;3.43;1.60;;;2.20;90.40;;;;;;5000049;28;20231;-89
2023/11/25 09:50:08;;;;;;;4.70;1.80;;;2.30;90.60;;;;;;4997483;28;20208;-90
2023/11/25 09:53:06;;;;;;;4.00;1.70;;;2.30;90.20;;;;;;5691858;23;20270;-88
2023/11/25 09:58:09;;;;;;;6.53;3.63;;;2.30;90.10;;;;;;5093859;23;20237;-92
2023/11/25 10:00:43;;;;;;;7.30;1.60;;;2.20;90.30;;;;;;5025490;28;20190;-91
2023/11/25 10:03:13;;;;;;;4.00;1.90;;;2.00;90.40;;;;;;5015249;28;20203;-90
2023/11/25 10:05:40;;;;;;;4.50;1.50;;;2.10;90.70;;;;;;5023561;28;20222;-91
2023/11/25 10:08:09;;;;;;;3.10;1.60;;;2.00;90.50;;;;;;5028393;28;20210;-91
2023/11/25 10:10:36;;;;;;;4.70;1.80;;;2.10;90.50;;;;;;5027898;28;20209;-91
2023/11/25 10:13:04;;;;;;;3.30;1.40;;;2.10;91.00;;;;;;5153157;23;20307;-91
2023/11/25 10:15:46;;;;;;;3.30;1.63;;;2.10;90.30;;;;;;5029703;28;20206;-89
2023/11/25 10:18:13;;;;;;;6.10;1.80;;;2.30;90.80;;;;;;5029369;28;20657;-90
2023/11/25 10:20:42;;;;;;;2.80;1.50;;;2.10;90.60;;;;;;5028718;28;20197;-90
2023/11/25 10:23:21;;;;;;;3.00;1.57;;;2.10;90.10;;;;;;5022965;28;20623;-89
2023/11/25 10:25:48;;;;;;;10.07;1.97;;;2.10;90.50;;;;;;5029535;28;20218;-92
2023/11/25 10:28:17;;;;;;;4.73;1.87;;;2.20;90.20;;;;;;5022353;28;20194;-90
2023/11/25 10:30:52;;;;;;;6.90;1.80;;;2.20;90.20;;;;;;5023161;28;20199;-88
2023/11/25 10:33:21;;;;;;;4.53;2.23;;;2.20;90.20;;;;;;5021885;28;20202;-88
2023/11/25 10:35:48;;;;;;;9.47;2.10;;;2.10;90.30;;;;;;5023059;28;20246;-88
2023/11/25 10:38:21;;;;;;;5.73;2.10;;;2.00;90.80;;;;;;5026830;28;20245;-90
2023/11/25 10:40:49;;;;;;;3.07;1.80;;;2.10;90.80;;;;;;5026186;28;20213;-90
2023/11/25 10:43:17;;;;;;;5.70;2.33;;;2.30;91.00;;;;;;5019535;28;20258;-89
2023/11/25 10:45:45;;;;;;;6.83;2.00;;;2.30;91.20;;;;;;5026594;28;20646;-87
2023/11/25 10:48:13;;;;;;;5.87;1.80;;;2.50;90.90;;;;;;5029056;28;20205;-89
2023/11/25 10:50:43;;;;;;;4.40;2.20;;;2.50;90.00;;;;;;5021288;28;20199;-87
2023/11/25 10:53:14;;;;;;;5.97;2.20;;;2.40;90.10;;;;;;5004899;28;20223;-89
2023/11/25 10:55:44;;;;;;;6.60;2.10;;;2.30;90.80;;;;;;5011576;28;20206;-90
2023/11/25 10:58:11;;;;;;;5.60;2.27;;;2.30;91.20;;;;;;5004318;28;20204;-91
2023/11/25 11:00:38;;;;;;;6.87;2.50;;;2.40;90.90;;;;;;5009900;28;20210;-90
2023/11/25 11:03:09;;;;;;;5.97;1.90;;;2.40;90.90;;;;;;5009657;28;20199;-90
2023/11/25 11:05:46;;;;;;;5.23;1.93;;;2.50;90.90;;;;;;5012030;28;20773;-90
2023/11/25 11:08:17;;;;;;;8.07;1.60;;;2.50;90.70;;;;;;5004606;28;20196;-87
2023/11/25 11:10:54;;;;;;;4.10;1.67;;;2.40;90.80;;;;;;5007103;28;20206;-91
2023/11/25 11:13:26;;;;;;;5.80;2.03;;;2.30;91.00;;;;;;5008009;28;20217;-92
2023/11/25 11:15:58;;;;;;;6.40;1.90;;;2.30;91.20;;;;;;5016568;28;20203;-89
2023/11/25 11:18:30;;;;;;;6.43;2.23;;;2.30;91.60;;;;;;5004932;28;20203;-89
2023/11/25 11:20:59;;;;;;;5.30;2.07;;;2.40;91.40;;;;;;5011786;28;20911;-90
2023/11/25 11:23:27;;;;;;;3.77;2.00;;;2.40;91.70;;;;;;5009800;28;20204;-90
2023/11/25 11:26:02;;;;;;;5.57;1.90;;;2.50;91.60;;;;;;4992752;28;20269;-90
2023/11/25 11:28:39;;;;;;;6.00;2.30;;;2.50;91.00;;;;;;5005688;28;20218;-88
2023/11/25 11:31:41;;;;;;;4.97;2.53;;;2.70;90.70;;;;;;5008529;28;20206;-90
2023/11/25 11:34:08;;;;;;;6.97;2.27;;;2.70;90.80;;;;;;5011410;28;20198;-89
2023/11/25 11:36:36;;;;;;;9.27;2.30;;;2.80;90.80;;;;;;5011683;28;20196;-89
2023/11/25 11:39:03;;;;;;;5.33;2.33;;;2.80;90.80;;;;;;5003922;28;20270;-90
2023/11/25 11:41:31;;;;;;;8.63;2.17;;;2.70;90.60;;;;;;5011736;28;20203;-89
2023/11/25 11:44:04;;;;;;;5.53;2.10;;;2.80;91.10;;;;;;5014983;28;20298;-88
2023/11/25 11:46:32;;;;;;;5.83;2.10;;;2.70;90.50;;;;;;5014757;28;21104;-90
2023/11/25 11:49:00;;;;;;;3.50;1.90;;;2.60;90.70;;;;;;5012247;28;20235;-89
2023/11/25 11:51:27;;;;;;;4.33;2.47;;;2.60;91.10;;;;;;5015606;28;20224;-89
2023/11/25 11:54:26;;;;;;;5.00;2.20;;;2.60;90.80;;;;;;5002783;28;20199;-89
2023/11/25 12:00:11;;;;;;;2.20;1.70;;;2.30;91.20;;;;;;5015868;28;20210;-93
2023/11/25 12:02:42;;;;;;;4.30;1.90;;;2.30;91.70;;;;;;5012008;28;20199;-90
2023/11/25 12:05:10;;;;;;;6.10;2.03;;;2.20;91.80;;;;;;5006982;28;20234;-90
2023/11/25 12:07:37;;;;;;;3.00;1.90;;;2.20;91.80;;;;;;5007531;28;20195;-88
2023/11/25 12:10:05;;;;;;;4.80;1.70;;;2.10;92.20;;;;;;5011250;28;20381;-88
2023/11/25 12:12:40;;;;;;;8.37;2.30;;;2.10;92.20;;;;;;5006822;28;20211;-87
2023/11/25 12:15:10;;;;;;;3.50;1.90;;;2.20;92.80;;;;;;5003051;28;20199;-90
2023/11/25 12:17:38;;;;;;;4.13;1.87;;;2.20;92.20;;;;;;5004735;28;20196;-88
2023/11/25 12:20:08;;;;;;;5.70;1.80;;;2.40;92.10;;;;;;5012368;28;20688;-89
2023/11/25 12:22:35;;;;;;;6.47;3.00;;;2.40;92.00;;;;;;5005760;28;20583;-87
2023/11/25 12:25:03;;;;;;;3.30;2.10;;;2.50;92.40;;;;;;5009666;28;20223;-92
2023/11/25 12:27:34;;;;;;;3.80;1.93;;;2.70;92.60;;;;;;5013693;28;20206;-90
2023/11/25 12:30:01;;;;;;;5.63;2.20;;;2.90;91.00;;;;;;5001629;28;20227;-90
2023/11/25 12:32:29;;;;;;;4.13;2.40;;;2.80;90.70;;;;;;5012469;28;20338;-89
2023/11/25 12:34:56;;;;;;;4.50;1.60;;;2.80;90.70;;;;;;5029961;28;20176;-85
2023/11/25 12:37:23;;;;;;;7.80;1.87;;;2.80;90.60;;;;;;5027293;28;20270;-89
2023/11/25 12:39:50;;;;;;;5.23;1.63;;;2.70;90.60;;;;;;5014581;28;20205;-86
2023/11/25 12:42:24;;;;;;;4.50;1.73;;;2.60;90.80;;;;;;5010975;28;20199;-89
2023/11/25 12:44:55;;;;;;;4.20;1.80;;;2.80;91.20;;;;;;5008102;28;20230;-89
2023/11/25 12:47:22;;;;;;;4.90;1.80;;;2.80;90.60;;;;;;5013522;28;20210;-90
2023/11/25 12:49:50;;;;;;;2.03;1.50;;;2.80;90.00;;;;;;5006036;28;20207;-87
2023/11/25 12:52:25;;;;;;;2.17;1.53;;;2.90;90.20;;;;;;5010498;28;20269;-88
2023/11/25 12:54:53;;;;;;;6.73;1.90;;;2.90;90.50;;;;;;5004703;28;20200;-86
2023/11/25 12:57:24;;;;;;;6.23;1.67;;;3.00;89.10;;;;;;5012594;28;20218;-86
2023/11/25 13:00:05;;;;;;;6.40;2.07;;;2.90;87.70;;;;;;5017390;28;20208;-92
2023/11/25 13:10:41;;;;;;;3.17;1.53;;;2.70;88.90;;;;;;5041676;28;20213;-92
2023/11/25 13:16:23;;;;;;;7.23;1.90;;;2.60;90.60;;;;;;5035333;28;20194;-93
2023/11/25 13:41:51;;;;;;;4.27;1.90;;;2.50;90.40;;;;;;6203253;23;20193;31
2023/11/25 13:49:41;;;;;;;2.73;1.80;;;2.60;90.10;;;;;;5005999;28;20214;-90